Time;durP1;ratioP1;P1;durP2;ratioP2;P2;SDS_P1;SDS_P2;PMS_P1;PMS_P2;Temp;Humidity;BMP_temperature;BMP_pressure;BME280_temperature;BME280_humidity;BME280_pressure;Samples;Min_cycle;Max_cycle;Signal;HPM_P1;HPM_P2
2023/06/14 00:01:45;;;;;;;6.72;2.72;;;19.20;56.50;;;;;;5036608;28;20041;-61
2023/06/14 00:04:12;;;;;;;4.65;2.70;;;19.20;56.60;;;;;;5021871;28;20036;-61
2023/06/14 00:06:38;;;;;;;5.25;2.58;;;19.10;56.70;;;;;;5045858;28;20077;-62
2023/06/14 00:09:04;;;;;;;9.43;2.78;;;19.10;56.90;;;;;;5021236;28;20072;-62
2023/06/14 00:11:31;;;;;;;6.95;2.80;;;19.00;57.10;;;;;;5020830;28;20530;-62
2023/06/14 00:13:57;;;;;;;9.07;2.88;;;19.00;57.00;;;;;;5023265;28;20069;-62
2023/06/14 00:16:23;;;;;;;7.82;3.00;;;19.00;57.20;;;;;;5029496;28;20124;-62
2023/06/14 00:18:49;;;;;;;7.18;2.90;;;18.90;57.10;;;;;;5023505;28;20473;-62
2023/06/14 00:21:14;;;;;;;4.75;2.75;;;18.90;57.30;;;;;;5038129;28;20116;-61
2023/06/14 00:23:40;;;;;;;16.27;3.03;;;18.90;57.40;;;;;;5047828;28;20037;-61
2023/06/14 00:26:06;;;;;;;6.43;2.50;;;18.80;57.40;;;;;;5041425;28;20450;-61
2023/06/14 00:28:31;;;;;;;7.57;2.60;;;18.80;57.40;;;;;;5047912;28;20033;-61
2023/06/14 00:30:57;;;;;;;5.75;2.95;;;18.80;57.50;;;;;;5042728;28;20044;-62
2023/06/14 00:33:22;;;;;;;8.07;3.13;;;18.70;57.50;;;;;;5049362;28;20118;-62
2023/06/14 00:35:48;;;;;;;6.70;2.95;;;18.70;57.70;;;;;;5039935;28;20479;-62
2023/06/14 00:38:14;;;;;;;6.93;2.75;;;18.70;57.80;;;;;;5040010;28;20089;-61
2023/06/14 00:40:39;;;;;;;7.30;2.80;;;18.60;57.90;;;;;;5002706;28;20489;-62
2023/06/14 00:43:05;;;;;;;5.97;2.50;;;18.60;58.00;;;;;;5038505;28;20033;-63
2023/06/14 00:45:35;;;;;;;9.20;2.90;;;18.60;58.10;;;;;;5040887;28;20723;-63
2023/06/14 00:48:02;;;;;;;5.35;2.50;;;18.50;58.20;;;;;;5041669;28;20048;-63
2023/06/14 00:50:29;;;;;;;6.50;2.58;;;18.50;58.40;;;;;;5016134;28;20049;-61
2023/06/14 00:52:56;;;;;;;9.60;2.88;;;18.40;58.50;;;;;;5041902;28;20487;-63
2023/06/14 00:55:21;;;;;;;7.13;2.90;;;18.40;58.60;;;;;;5040590;28;20170;-63
2023/06/14 00:57:49;;;;;;;7.35;2.70;;;18.40;58.80;;;;;;5033567;28;20599;-63
2023/06/14 01:00:15;;;;;;;5.30;2.58;;;18.30;58.80;;;;;;5007686;28;20045;-63
2023/06/14 01:02:41;;;;;;;5.63;2.25;;;18.30;58.90;;;;;;5039601;28;20048;-64
2023/06/14 01:05:09;;;;;;;5.93;2.80;;;18.30;59.00;;;;;;5042902;28;20025;-62
2023/06/14 01:07:54;;;;;;;7.47;2.85;;;18.30;59.20;;;;;;5048206;28;20044;-63
2023/06/14 01:10:45;;;;;;;6.60;2.55;;;18.20;59.20;;;;;;5007838;28;20076;-63
2023/06/14 01:13:20;;;;;;;9.73;2.90;;;18.20;59.40;;;;;;5026791;28;20510;-62
2023/06/14 01:15:47;;;;;;;7.95;2.70;;;18.10;59.50;;;;;;5033233;28;20441;-63
2023/06/14 01:18:18;;;;;;;6.72;2.65;;;18.10;59.60;;;;;;5047852;28;20079;-61
2023/06/14 01:20:49;;;;;;;5.68;2.75;;;18.10;59.80;;;;;;5030487;28;20277;-63
2023/06/14 01:23:18;;;;;;;5.47;2.50;;;18.00;60.00;;;;;;5028445;28;20391;-61
2023/06/14 01:25:44;;;;;;;6.05;2.22;;;18.00;60.10;;;;;;5038415;28;20037;-63
2023/06/14 01:28:11;;;;;;;4.80;3.28;;;17.90;60.30;;;;;;5016551;28;20411;-63
2023/06/14 01:30:44;;;;;;;4.82;2.38;;;17.90;60.50;;;;;;5038561;28;20528;-61
2023/06/14 01:33:14;;;;;;;6.20;2.72;;;17.90;60.60;;;;;;5035782;28;20040;-63
2023/06/14 01:35:45;;;;;;;4.63;2.60;;;17.80;60.70;;;;;;5043289;28;20554;-63
2023/06/14 01:38:12;;;;;;;6.85;2.85;;;17.80;60.90;;;;;;5017801;28;20484;-63
2023/06/14 01:40:39;;;;;;;4.75;2.58;;;17.80;61.10;;;;;;5029302;28;20037;-63
2023/06/14 01:43:06;;;;;;;7.55;2.80;;;17.80;61.20;;;;;;5032265;28;20059;-63
2023/06/14 01:45:32;;;;;;;8.38;2.60;;;17.70;61.40;;;;;;5031400;28;20040;-59
2023/06/14 01:47:58;;;;;;;5.20;2.45;;;17.70;61.50;;;;;;5044083;28;20045;-64
2023/06/14 01:50:27;;;;;;;5.75;2.47;;;17.70;61.70;;;;;;5018770;28;20037;-62
2023/06/14 01:52:53;;;;;;;6.00;2.58;;;17.60;61.80;;;;;;5042068;28;20040;-63
2023/06/14 01:55:18;;;;;;;7.20;2.55;;;17.60;62.00;;;;;;5036629;28;20037;-63
2023/06/14 01:57:44;;;;;;;7.13;2.83;;;17.60;62.20;;;;;;5044465;28;20116;-63
2023/06/14 02:00:12;;;;;;;9.30;3.00;;;17.50;62.40;;;;;;5041092;28;20029;-62
2023/06/14 02:02:38;;;;;;;5.40;2.80;;;17.50;62.50;;;;;;5010605;28;20053;-63
2023/06/14 02:05:04;;;;;;;7.32;2.58;;;17.50;62.70;;;;;;5046389;28;20033;-63
2023/06/14 02:07:30;;;;;;;6.22;3.00;;;17.40;62.80;;;;;;5045211;28;20059;-61
2023/06/14 02:09:55;;;;;;;7.15;2.92;;;17.40;63.00;;;;;;5033565;28;20038;-64
2023/06/14 02:12:21;;;;;;;5.47;2.45;;;17.40;63.10;;;;;;5045762;28;20047;-63
2023/06/14 02:14:46;;;;;;;7.43;2.78;;;17.40;63.40;;;;;;5041249;28;20060;-63
2023/06/14 02:17:12;;;;;;;7.88;2.80;;;17.30;63.60;;;;;;5046647;28;20453;-61
2023/06/14 02:19:38;;;;;;;5.18;2.60;;;17.30;63.70;;;;;;5037069;28;20076;-64
2023/06/14 02:22:04;;;;;;;5.38;2.60;;;17.30;63.90;;;;;;5025808;28;20607;-64
2023/06/14 02:24:30;;;;;;;7.32;2.80;;;17.20;64.10;;;;;;5021835;28;20120;-63
2023/06/14 02:26:55;;;;;;;6.10;2.88;;;17.20;64.30;;;;;;5040018;28;20408;-63
2023/06/14 02:29:21;;;;;;;8.15;2.80;;;17.20;64.50;;;;;;5043416;28;20044;-59
2023/06/14 02:31:48;;;;;;;3.40;2.35;;;17.20;64.60;;;;;;5028419;28;20043;-62
2023/06/14 02:34:16;;;;;;;7.50;2.70;;;17.20;65.40;;;;;;5035376;28;20041;-63
2023/06/14 02:36:42;;;;;;;5.97;2.80;;;17.10;65.00;;;;;;5036674;28;20060;-64
2023/06/14 02:39:11;;;;;;;7.07;2.97;;;17.10;65.20;;;;;;5028103;28;20033;-63
2023/06/14 02:41:37;;;;;;;4.70;2.60;;;17.00;65.30;;;;;;5033827;28;20115;-64
2023/06/14 02:44:03;;;;;;;6.30;3.03;;;17.00;65.50;;;;;;5029464;28;20029;-63
2023/06/14 02:46:29;;;;;;;7.88;2.83;;;17.00;65.70;;;;;;5043847;28;20395;-63
2023/06/14 02:48:54;;;;;;;4.38;2.78;;;16.90;65.80;;;;;;5036175;28;20072;-63
2023/06/14 02:51:20;;;;;;;4.70;2.70;;;16.90;66.10;;;;;;5033055;28;20399;-62
2023/06/14 02:53:45;;;;;;;5.82;2.60;;;16.90;66.30;;;;;;5039593;28;20045;-62
2023/06/14 02:56:11;;;;;;;8.40;3.00;;;16.90;66.40;;;;;;5038991;28;20044;-62
2023/06/14 02:58:39;;;;;;;9.15;2.92;;;16.90;66.60;;;;;;5046995;28;20040;-62
2023/06/14 03:01:07;;;;;;;4.47;2.88;;;16.80;66.80;;;;;;5040348;28;20398;-62
2023/06/14 03:03:33;;;;;;;5.05;2.65;;;16.80;67.00;;;;;;5026053;28;20304;-61
2023/06/14 03:06:04;;;;;;;5.22;2.60;;;16.70;67.10;;;;;;5050554;28;20035;-62
2023/06/14 03:08:38;;;;;;;11.95;2.88;;;16.70;67.30;;;;;;5037957;28;20030;-62
2023/06/14 03:11:07;;;;;;;9.98;2.95;;;16.70;67.50;;;;;;5046723;28;20035;-62
2023/06/14 03:13:34;;;;;;;6.80;2.70;;;16.70;67.70;;;;;;5043563;28;20065;-62
2023/06/14 03:16:02;;;;;;;7.70;2.95;;;16.70;67.80;;;;;;5049688;28;20041;-62
2023/06/14 03:18:35;;;;;;;4.60;2.45;;;16.70;68.10;;;;;;5042102;28;20046;-62
2023/06/14 03:21:01;;;;;;;5.75;3.03;;;16.60;68.20;;;;;;5048404;28;20041;-62
2023/06/14 03:23:27;;;;;;;5.90;2.80;;;16.60;68.40;;;;;;5041040;28;20037;-62
2023/06/14 03:25:52;;;;;;;5.78;2.72;;;16.60;68.50;;;;;;5033120;28;20037;-62
2023/06/14 03:28:18;;;;;;;7.65;2.90;;;16.60;68.60;;;;;;5049940;28;20479;-61
2023/06/14 03:30:44;;;;;;;7.07;2.92;;;16.50;68.90;;;;;;5039871;28;20041;-62
2023/06/14 03:33:10;;;;;;;6.45;2.80;;;16.60;69.00;;;;;;5044803;28;20065;-62
2023/06/14 03:35:36;;;;;;;8.73;3.10;;;16.50;69.20;;;;;;5040359;28;20161;-62
2023/06/14 03:38:03;;;;;;;7.20;3.00;;;16.50;69.30;;;;;;5052131;28;20128;-62
2023/06/14 03:40:29;;;;;;;6.13;2.72;;;16.50;69.40;;;;;;5040988;28;20045;-62
2023/06/14 03:42:55;;;;;;;8.15;2.78;;;16.40;70.10;;;;;;5044099;28;20034;-62
2023/06/14 03:45:21;;;;;;;7.93;2.80;;;16.50;69.70;;;;;;5045654;28;20067;-62
2023/06/14 03:47:47;;;;;;;5.70;2.75;;;16.40;69.90;;;;;;5044506;28;20043;-62
2023/06/14 03:50:12;;;;;;;7.35;2.92;;;16.40;70.00;;;;;;5040562;28;20044;-62
2023/06/14 03:52:38;;;;;;;10.30;2.92;;;16.40;70.20;;;;;;5046829;28;20045;-62
2023/06/14 03:55:04;;;;;;;7.20;3.33;;;16.40;70.50;;;;;;5042909;28;20087;-62
2023/06/14 03:57:30;;;;;;;9.85;3.00;;;16.40;70.60;;;;;;5041092;28;20033;-62
2023/06/14 03:59:56;;;;;;;6.03;2.67;;;16.40;70.60;;;;;;5034034;28;20029;-62
2023/06/14 04:02:22;;;;;;;5.70;2.88;;;16.40;70.80;;;;;;5027808;28;20033;-62
2023/06/14 04:04:48;;;;;;;4.63;2.58;;;16.40;71.00;;;;;;5045613;28;20112;-62
2023/06/14 04:07:15;;;;;;;7.93;2.70;;;16.40;71.10;;;;;;5047179;28;20048;-62
2023/06/14 04:09:41;;;;;;;5.28;3.10;;;16.40;71.30;;;;;;5027473;28;20115;-62
2023/06/14 04:12:11;;;;;;;5.97;2.85;;;16.40;71.40;;;;;;5039535;28;20246;-62
2023/06/14 04:14:37;;;;;;;9.32;3.40;;;16.40;71.60;;;;;;5026841;28;20131;-62
2023/06/14 04:17:03;;;;;;;4.85;2.95;;;16.30;71.60;;;;;;5048147;28;20045;-62
2023/06/14 04:19:29;;;;;;;5.65;3.35;;;16.40;71.80;;;;;;5040027;28;20036;-62
2023/06/14 04:21:55;;;;;;;5.28;3.22;;;16.40;72.00;;;;;;5048618;28;20025;-62
2023/06/14 04:24:20;;;;;;;5.32;2.90;;;16.40;72.10;;;;;;5041414;28;20072;-62
2023/06/14 04:26:47;;;;;;;5.68;2.65;;;16.40;72.20;;;;;;5040355;28;20084;-62
2023/06/14 04:29:15;;;;;;;9.27;3.47;;;16.40;72.40;;;;;;5042291;28;20044;-62
2023/06/14 04:31:42;;;;;;;8.90;3.08;;;16.40;72.60;;;;;;5035967;28;20234;-62
2023/06/14 04:34:08;;;;;;;6.20;3.13;;;16.40;72.80;;;;;;5031934;28;20398;-62
2023/06/14 04:36:36;;;;;;;7.72;2.97;;;16.40;72.80;;;;;;5046200;28;20044;-62
2023/06/14 04:39:06;;;;;;;8.35;2.97;;;16.40;73.00;;;;;;5041971;28;20090;-62
2023/06/14 04:41:31;;;;;;;10.35;3.17;;;16.40;73.10;;;;;;5041648;28;20167;-62
2023/06/14 04:44:03;;;;;;;7.50;3.50;;;16.60;73.30;;;;;;5041732;28;20112;-62
2023/06/14 04:46:30;;;;;;;9.38;3.38;;;16.40;73.40;;;;;;5044814;28;20033;-62
2023/06/14 04:48:56;;;;;;;5.20;3.03;;;16.40;73.50;;;;;;5026284;28;20045;-62
2023/06/14 04:51:29;;;;;;;11.10;3.22;;;16.40;73.80;;;;;;5051571;28;20037;-62
2023/06/14 04:53:59;;;;;;;6.57;3.13;;;16.40;73.90;;;;;;5024735;28;20107;-62
2023/06/14 04:56:25;;;;;;;10.43;3.22;;;16.40;74.00;;;;;;5026601;28;20060;-62
2023/06/14 04:58:52;;;;;;;5.82;3.15;;;16.50;74.20;;;;;;5040178;28;20038;-62
2023/06/14 05:01:18;;;;;;;6.57;3.00;;;16.50;74.10;;;;;;5030335;28;20045;-62
2023/06/14 05:03:45;;;;;;;7.25;2.95;;;16.50;74.20;;;;;;5044990;28;20036;-62
2023/06/14 05:06:11;;;;;;;7.20;3.42;;;16.60;74.30;;;;;;5026527;28;20087;-62
2023/06/14 05:08:37;;;;;;;5.30;3.10;;;16.60;74.50;;;;;;5025747;28;20395;-62
2023/06/14 05:11:03;;;;;;;6.05;3.53;;;16.50;74.40;;;;;;5048006;28;20471;-62
2023/06/14 05:13:28;;;;;;;6.63;3.30;;;16.60;74.60;;;;;;5037847;28;20026;-62
2023/06/14 05:15:54;;;;;;;7.90;3.70;;;16.60;74.40;;;;;;5029788;28;20048;-62
2023/06/14 05:18:20;;;;;;;6.15;3.28;;;16.60;74.40;;;;;;5046259;28;20069;-62
2023/06/14 05:20:46;;;;;;;7.55;4.00;;;16.60;74.30;;;;;;5021735;28;20037;-62
2023/06/14 05:23:16;;;;;;;5.30;2.97;;;16.70;74.30;;;;;;5031363;28;20108;-62
2023/06/14 05:25:45;;;;;;;8.95;3.35;;;16.70;74.30;;;;;;5006416;28;20048;-62
2023/06/14 05:28:11;;;;;;;6.03;3.15;;;16.70;74.30;;;;;;5035160;28;20040;-62
2023/06/14 05:30:40;;;;;;;8.80;3.47;;;16.70;74.20;;;;;;5040299;28;20057;-62
2023/06/14 05:33:06;;;;;;;6.35;3.20;;;16.70;74.40;;;;;;5042220;28;20040;-62
2023/06/14 05:35:31;;;;;;;7.30;3.58;;;16.80;74.40;;;;;;5033505;28;20033;-62
2023/06/14 05:37:57;;;;;;;7.13;3.63;;;16.80;74.40;;;;;;5041968;28;20546;-62
2023/06/14 05:40:23;;;;;;;9.15;3.65;;;16.80;74.40;;;;;;5047354;28;20323;-62
2023/06/14 05:42:48;;;;;;;6.20;3.60;;;16.90;74.40;;;;;;5032854;28;20033;-62
2023/06/14 05:45:15;;;;;;;6.95;3.22;;;16.80;74.40;;;;;;5038522;28;20033;-62
2023/06/14 05:47:41;;;;;;;6.18;3.45;;;16.90;74.30;;;;;;5040968;28;20106;-62
2023/06/14 05:50:07;;;;;;;6.97;3.60;;;16.90;74.40;;;;;;5037517;28;20480;-62
2023/06/14 05:52:34;;;;;;;6.20;3.55;;;17.00;74.40;;;;;;5047443;28;20048;-62
2023/06/14 05:54:59;;;;;;;6.15;3.45;;;17.10;74.50;;;;;;5035996;28;20037;-62
2023/06/14 05:57:25;;;;;;;6.32;3.40;;;17.10;74.40;;;;;;5034733;28;20503;-62
2023/06/14 05:59:51;;;;;;;4.47;3.10;;;17.10;74.40;;;;;;5019348;28;20038;-62
2023/06/14 06:02:17;;;;;;;5.63;3.60;;;17.10;74.20;;;;;;5023787;28;20037;-62
2023/06/14 06:04:42;;;;;;;5.93;2.95;;;17.10;74.10;;;;;;5026339;28;20052;-62
2023/06/14 06:07:08;;;;;;;6.43;2.90;;;17.20;74.10;;;;;;5029582;28;20072;-62
2023/06/14 06:09:33;;;;;;;6.38;3.40;;;17.20;74.00;;;;;;5027373;28;20624;-62
2023/06/14 06:11:59;;;;;;;6.93;3.47;;;17.20;73.80;;;;;;5041990;28;20037;-62
2023/06/14 06:14:25;;;;;;;6.28;3.13;;;17.30;73.80;;;;;;5033078;28;20099;-62
2023/06/14 06:16:52;;;;;;;7.68;3.75;;;17.30;73.70;;;;;;5033795;28;20491;-62
2023/06/14 06:19:18;;;;;;;11.13;3.60;;;17.30;73.60;;;;;;5044232;28;20033;-62
2023/06/14 06:21:43;;;;;;;7.35;3.60;;;17.40;73.60;;;;;;5039374;28;20037;-62
2023/06/14 06:24:09;;;;;;;9.13;3.28;;;17.40;73.60;;;;;;5025687;28;20029;-62
2023/06/14 06:26:35;;;;;;;5.80;3.33;;;17.50;73.50;;;;;;5035952;28;20047;-63
2023/06/14 06:29:01;;;;;;;7.70;3.17;;;17.50;73.40;;;;;;5045602;28;20063;-62
2023/06/14 06:31:27;;;;;;;5.03;2.83;;;17.50;73.20;;;;;;5044753;28;20033;-62
2023/06/14 06:33:56;;;;;;;6.10;3.28;;;17.50;73.10;;;;;;5034317;28;20059;-62
2023/06/14 06:36:21;;;;;;;6.43;3.40;;;17.60;72.90;;;;;;5033070;28;20048;-62
2023/06/14 06:38:48;;;;;;;8.85;3.22;;;17.60;72.80;;;;;;5027420;28;20232;-62
2023/06/14 06:41:13;;;;;;;5.82;3.13;;;17.70;72.50;;;;;;5046202;28;20402;-62
2023/06/14 06:43:39;;;;;;;5.68;3.20;;;17.70;72.50;;;;;;5038191;28;20111;-62
2023/06/14 06:46:05;;;;;;;6.68;2.95;;;17.80;72.40;;;;;;5046033;28;20079;-62
2023/06/14 06:48:30;;;;;;;9.32;3.75;;;17.80;72.40;;;;;;5042399;28;20361;-62
2023/06/14 06:50:56;;;;;;;6.63;3.75;;;17.90;72.30;;;;;;5031925;28;20041;-62
2023/06/14 06:53:22;;;;;;;5.53;2.70;;;17.90;72.10;;;;;;5033695;28;20033;-62
2023/06/14 06:55:48;;;;;;;6.75;3.15;;;17.90;71.90;;;;;;5031927;28;20492;-62
2023/06/14 06:58:14;;;;;;;6.03;2.85;;;18.00;71.80;;;;;;5047736;28;20122;-62
2023/06/14 07:00:39;;;;;;;4.50;2.70;;;18.10;71.70;;;;;;5046062;28;20068;-62
2023/06/14 07:03:05;;;;;;;5.53;3.00;;;18.20;71.60;;;;;;5023717;28;20483;-62
2023/06/14 07:05:32;;;;;;;4.63;2.55;;;18.20;71.30;;;;;;5031205;28;20025;-62
2023/06/14 07:07:57;;;;;;;6.97;2.65;;;18.30;71.10;;;;;;5019591;28;20095;-62
2023/06/14 07:10:24;;;;;;;4.55;2.47;;;18.40;71.00;;;;;;5040999;28;20076;-62
2023/06/14 07:12:50;;;;;;;4.97;2.50;;;18.40;70.50;;;;;;5038273;28;20265;-62
2023/06/14 07:15:16;;;;;;;7.65;2.67;;;18.50;70.20;;;;;;5040252;28;20038;-62
2023/06/14 07:17:42;;;;;;;6.32;2.65;;;18.50;70.00;;;;;;5045909;28;20559;-62
2023/06/14 07:20:11;;;;;;;5.82;2.60;;;18.50;70.10;;;;;;5034046;28;20045;-62
2023/06/14 07:22:41;;;;;;;6.50;2.80;;;18.60;70.00;;;;;;5031399;28;20048;-62
2023/06/14 07:25:14;;;;;;;7.50;2.70;;;18.70;69.70;;;;;;5025622;28;20076;-62
2023/06/14 07:27:43;;;;;;;7.50;2.63;;;18.70;69.50;;;;;;5040391;28;20039;-62
2023/06/14 07:30:10;;;;;;;6.00;2.70;;;18.70;69.50;;;;;;5042689;28;20060;-62
2023/06/14 07:32:36;;;;;;;6.90;2.85;;;18.80;69.70;;;;;;5025782;28;20044;-62
2023/06/14 07:35:02;;;;;;;5.32;2.60;;;18.80;69.50;;;;;;5045846;28;20484;-62
2023/06/14 07:37:28;;;;;;;5.53;2.53;;;18.90;69.40;;;;;;5040216;28;20653;-62
2023/06/14 07:39:54;;;;;;;4.00;2.78;;;18.90;69.10;;;;;;5048165;28;20044;-62
2023/06/14 07:42:19;;;;;;;7.00;3.08;;;19.00;69.30;;;;;;5031986;28;20403;-62
2023/06/14 07:44:45;;;;;;;4.70;2.72;;;19.00;69.10;;;;;;5034334;28;20037;-62
2023/06/14 07:47:11;;;;;;;6.15;2.80;;;19.10;69.20;;;;;;5035820;28;20037;-62
2023/06/14 07:49:36;;;;;;;3.88;2.67;;;19.10;69.10;;;;;;5038514;28;20545;-62
2023/06/14 07:52:03;;;;;;;4.22;2.70;;;19.20;68.90;;;;;;5026063;28;20517;-62
2023/06/14 07:54:29;;;;;;;5.00;2.40;;;19.30;68.70;;;;;;5047655;28;20033;-62
2023/06/14 07:56:56;;;;;;;4.25;2.50;;;19.30;68.60;;;;;;5024136;28;20081;-62
2023/06/14 07:59:21;;;;;;;6.15;2.65;;;19.50;68.30;;;;;;5035617;28;20118;-62
2023/06/14 08:01:47;;;;;;;5.78;2.53;;;19.50;67.80;;;;;;5039120;28;20063;-62
2023/06/14 08:04:16;;;;;;;5.88;2.85;;;19.60;67.50;;;;;;5027012;28;20076;-62
2023/06/14 08:06:45;;;;;;;7.32;2.80;;;19.70;67.40;;;;;;5044211;28;20041;-62
2023/06/14 08:09:12;;;;;;;4.03;2.47;;;19.70;67.10;;;;;;5028578;28;20403;-62
2023/06/14 08:11:38;;;;;;;6.90;2.50;;;19.80;66.40;;;;;;5035106;28;20581;-62
2023/06/14 08:14:04;;;;;;;6.20;2.60;;;20.00;66.60;;;;;;5034249;28;20075;-62
2023/06/14 08:16:29;;;;;;;5.55;2.53;;;20.10;66.40;;;;;;5032448;28;20587;-62
2023/06/14 08:18:56;;;;;;;5.93;2.25;;;20.20;66.20;;;;;;5041744;28;20624;-62
2023/06/14 08:21:21;;;;;;;4.85;2.58;;;20.40;66.30;;;;;;5037921;28;20364;-62
2023/06/14 08:23:47;;;;;;;6.07;2.63;;;20.70;66.50;;;;;;5031587;28;20163;-62
2023/06/14 08:26:13;;;;;;;5.45;2.60;;;20.90;66.30;;;;;;5010317;28;20167;-62
2023/06/14 08:28:38;;;;;;;9.98;2.65;;;21.20;65.40;;;;;;5026037;28;20040;-62
2023/06/14 08:31:04;;;;;;;6.90;2.90;;;21.50;65.40;;;;;;5033060;28;20119;-62
2023/06/14 08:33:33;;;;;;;8.90;2.50;;;21.70;64.80;;;;;;5030503;28;20489;-62
2023/06/14 08:35:59;;;;;;;5.97;2.38;;;22.10;64.60;;;;;;5015349;28;20049;-62
2023/06/14 08:38:25;;;;;;;6.20;2.58;;;22.30;63.70;;;;;;5034087;28;20037;-62
2023/06/14 08:40:56;;;;;;;7.53;2.60;;;22.50;63.00;;;;;;5023389;28;20116;-62
2023/06/14 08:43:22;;;;;;;;;;;22.70;61.40;;;;;;5032881;28;20123;-62
2023/06/14 08:45:52;;;;;;;4.47;2.17;;;22.90;59.50;;;;;;5034660;28;20370;-62
2023/06/14 08:48:21;;;;;;;6.18;2.35;;;23.00;60.30;;;;;;5027965;28;20047;-62
2023/06/14 08:50:47;;;;;;;5.00;2.08;;;23.30;59.60;;;;;;5028805;28;20053;-62
2023/06/14 08:53:16;;;;;;;3.67;2.20;;;23.40;59.30;;;;;;5046101;28;20055;-62
2023/06/14 08:55:43;;;;;;;3.35;2.22;;;23.50;58.20;;;;;;5040539;28;20056;-62
2023/06/14 08:58:09;;;;;;;3.20;1.90;;;23.80;58.40;;;;;;5045034;28;20471;-62
2023/06/14 09:00:37;;;;;;;5.70;2.40;;;23.90;58.70;;;;;;5037493;28;20119;-62
2023/06/14 09:03:03;;;;;;;5.25;2.15;;;24.10;58.10;;;;;;5040822;28;20060;-62
2023/06/14 09:05:28;;;;;;;3.40;2.10;;;24.30;58.00;;;;;;5034640;28;20038;-62
2023/06/14 09:07:55;;;;;;;7.07;2.33;;;24.60;58.00;;;;;;5040748;28;20065;-62
2023/06/14 09:10:21;;;;;;;5.15;2.20;;;24.70;56.50;;;;;;5042897;28;20060;-63
2023/06/14 09:12:47;;;;;;;3.70;1.95;;;24.80;55.90;;;;;;5033932;28;20046;-62
2023/06/14 09:15:14;;;;;;;5.93;2.00;;;24.90;55.20;;;;;;5036559;28;20119;-62
2023/06/14 09:17:40;;;;;;;3.75;2.30;;;25.00;54.40;;;;;;5039136;28;20041;-62
2023/06/14 09:20:09;;;;;;;3.10;2.10;;;25.00;54.60;;;;;;5029541;28;20605;-62
2023/06/14 09:22:35;;;;;;;4.75;2.03;;;25.10;54.50;;;;;;5038180;28;20041;-62
2023/06/14 09:25:01;;;;;;;4.07;2.00;;;25.20;54.30;;;;;;5024688;28;20127;-62
2023/06/14 09:27:27;;;;;;;5.93;1.90;;;25.30;54.10;;;;;;5022836;28;20113;-62
2023/06/14 09:29:53;;;;;;;4.20;2.10;;;25.50;53.90;;;;;;5040135;28;20111;-62
2023/06/14 09:32:23;;;;;;;2.85;1.80;;;25.60;53.60;;;;;;5019824;28;20368;-62
2023/06/14 09:34:48;;;;;;;5.78;2.42;;;25.70;53.40;;;;;;5025938;28;20041;-62
2023/06/14 09:37:35;;;;;;;6.60;2.00;;;25.90;53.20;;;;;;5017483;28;20099;-62
2023/06/14 09:40:01;;;;;;;4.68;2.10;;;26.10;51.50;;;;;;4995232;28;20103;-62
2023/06/14 09:42:28;;;;;;;3.80;2.10;;;26.10;52.20;;;;;;5031710;28;20400;-62
2023/06/14 09:44:55;;;;;;;5.30;2.10;;;26.30;51.70;;;;;;5024362;28;20045;-62
2023/06/14 09:47:21;;;;;;;1.92;1.65;;;26.30;51.50;;;;;;5032241;28;20060;-63
2023/06/14 09:49:48;;;;;;;4.53;2.10;;;26.30;51.40;;;;;;5038061;28;20052;-62
2023/06/14 09:52:18;;;;;;;11.50;2.22;;;26.40;51.40;;;;;;5045741;28;20044;-62
2023/06/14 09:54:49;;;;;;;2.87;2.00;;;26.50;50.40;;;;;;5045385;28;20300;-62
2023/06/14 09:57:17;;;;;;;5.45;1.95;;;26.50;50.30;;;;;;5022142;28;20299;-62
2023/06/14 09:59:45;;;;;;;1.73;1.60;;;26.60;50.40;;;;;;5045312;28;20046;-63
2023/06/14 10:02:37;;;;;;;10.52;2.10;;;26.70;50.00;;;;;;5022805;28;20545;-62
2023/06/14 10:05:06;;;;;;;3.70;1.65;;;26.70;47.90;;;;;;5037689;28;20504;-63
2023/06/14 10:07:44;;;;;;;2.92;1.73;;;26.60;48.60;;;;;;5012928;28;20045;-63
2023/06/14 10:10:10;;;;;;;2.08;1.75;;;26.60;48.70;;;;;;5027578;28;20551;-62
2023/06/14 10:12:37;;;;;;;4.00;2.05;;;26.60;48.90;;;;;;5026119;28;20496;-64
2023/06/14 10:15:03;;;;;;;3.30;1.63;;;26.70;49.10;;;;;;5014932;28;20108;-65
2023/06/14 10:17:44;;;;;;;3.70;1.65;;;26.80;49.10;;;;;;5023038;28;20041;-64
2023/06/14 10:20:19;;;;;;;2.35;1.70;;;27.00;48.20;;;;;;5038813;28;20037;-62
2023/06/14 10:22:50;;;;;;;2.88;1.60;;;27.10;48.00;;;;;;5043880;28;20045;-62
2023/06/14 10:25:29;;;;;;;3.75;1.70;;;27.30;47.90;;;;;;5038511;28;20372;-61
2023/06/14 10:28:18;;;;;;;5.28;1.90;;;27.40;47.90;;;;;;5034738;28;20090;-63
2023/06/14 10:31:05;;;;;;;6.80;2.15;;;27.50;47.00;;;;;;5036766;28;20049;-62
2023/06/14 10:33:38;;;;;;;7.97;2.47;;;27.60;47.00;;;;;;5039041;28;20247;-62
2023/06/14 10:36:28;;;;;;;5.28;2.03;;;27.70;46.50;;;;;;5020899;28;20116;-63
2023/06/14 10:39:07;;;;;;;3.95;1.80;;;27.60;46.80;;;;;;5026994;28;20392;-62
2023/06/14 10:41:38;;;;;;;6.78;2.30;;;27.70;46.00;;;;;;5045174;28;20029;-62
2023/06/14 10:44:12;;;;;;;3.88;1.80;;;27.70;45.90;;;;;;5039683;28;20053;-63
2023/06/14 10:46:38;;;;;;;3.85;1.77;;;27.80;45.50;;;;;;5034660;28;20052;-62
2023/06/14 10:49:05;;;;;;;2.60;1.65;;;27.80;46.40;;;;;;5021660;28;20056;-63
2023/06/14 10:51:46;;;;;;;5.03;1.90;;;27.90;46.30;;;;;;5038296;28;20037;-63
2023/06/14 10:54:15;;;;;;;5.85;1.80;;;28.00;46.20;;;;;;5031161;28;20037;-62
2023/06/14 10:56:48;;;;;;;2.88;1.73;;;28.00;46.70;;;;;;5036379;28;20049;-62
2023/06/14 10:59:15;;;;;;;7.68;1.90;;;28.20;45.70;;;;;;5030323;28;20033;-62
2023/06/14 11:02:18;;;;;;;7.40;1.90;;;28.30;45.90;;;;;;5039375;28;20412;-63
2023/06/14 11:04:56;;;;;;;1.80;1.70;;;28.30;45.60;;;;;;5021792;28;20041;-62
2023/06/14 11:07:40;;;;;;;5.15;1.70;;;28.30;45.30;;;;;;5031431;28;20408;-63
2023/06/14 11:10:25;;;;;;;3.28;1.98;;;28.30;44.90;;;;;;5029127;28;20032;-62
2023/06/14 11:12:54;;;;;;;2.60;1.80;;;28.30;44.40;;;;;;5039523;28;20045;-62
2023/06/14 11:15:20;;;;;;;3.33;1.80;;;28.40;44.80;;;;;;5026980;28;20526;-63
2023/06/14 11:17:56;;;;;;;4.97;1.90;;;28.40;45.30;;;;;;5036790;28;20037;-63
2023/06/14 11:20:25;;;;;;;5.70;1.80;;;28.50;45.40;;;;;;5033151;28;20503;-63
2023/06/14 11:22:52;;;;;;;10.13;2.10;;;28.70;45.50;;;;;;5036179;28;20034;-63
2023/06/14 11:25:17;;;;;;;7.63;1.90;;;28.80;45.00;;;;;;5034226;28;20128;-63
2023/06/14 11:27:44;;;;;;;3.50;1.77;;;28.90;44.90;;;;;;5031280;28;20116;-62
2023/06/14 11:30:10;;;;;;;3.90;1.92;;;28.80;44.50;;;;;;5032453;28;20040;-63
2023/06/14 11:32:36;;;;;;;6.38;2.10;;;28.90;44.50;;;;;;5035476;28;20403;-63
2023/06/14 11:35:04;;;;;;;2.85;1.77;;;28.80;43.80;;;;;;5034593;28;20048;-63
2023/06/14 11:37:30;;;;;;;5.45;1.85;;;28.90;43.90;;;;;;5007079;28;20071;-63
2023/06/14 11:40:00;;;;;;;3.50;2.08;;;28.80;43.50;;;;;;5030921;28;20046;-63
2023/06/14 11:42:28;;;;;;;3.58;1.95;;;28.70;43.90;;;;;;5025790;28;20045;-63
2023/06/14 11:44:55;;;;;;;1.98;1.80;;;28.80;44.00;;;;;;5036869;28;20392;-63
2023/06/14 11:47:20;;;;;;;4.50;1.83;;;28.90;44.10;;;;;;5044571;28;20037;-63
2023/06/14 11:49:47;;;;;;;4.35;1.83;;;29.00;43.80;;;;;;5044964;28;20392;-63
2023/06/14 11:52:13;;;;;;;5.10;1.80;;;29.00;43.60;;;;;;5034574;28;20527;-62
2023/06/14 11:54:41;;;;;;;4.47;1.85;;;29.00;43.70;;;;;;5027718;28;20554;-62
2023/06/14 11:57:07;;;;;;;3.97;1.90;;;29.00;43.80;;;;;;5037860;28;20037;-62
2023/06/14 11:59:44;;;;;;;4.57;1.80;;;29.00;44.30;;;;;;5049191;28;20033;-62
2023/06/14 12:02:13;;;;;;;6.72;2.10;;;29.10;43.90;;;;;;5032670;28;20033;-63
2023/06/14 12:04:41;;;;;;;4.57;2.03;;;29.10;44.20;;;;;;5045730;28;20040;-63
2023/06/14 12:07:15;;;;;;;8.23;1.80;;;29.10;44.20;;;;;;5043511;28;20041;-63
2023/06/14 12:09:53;;;;;;;4.20;1.98;;;29.20;43.50;;;;;;5031308;28;20038;-61
2023/06/14 12:12:21;;;;;;;5.55;2.03;;;29.30;44.00;;;;;;5014794;28;20073;-61
2023/06/14 12:14:47;;;;;;;2.58;1.90;;;29.20;44.00;;;;;;5029689;28;20045;-66
2023/06/14 12:17:13;;;;;;;2.55;2.05;;;29.30;43.80;;;;;;5014248;28;20044;-62
2023/06/14 12:19:43;;;;;;;4.07;1.98;;;29.20;44.30;;;;;;5033284;28;20034;-62
2023/06/14 12:22:13;;;;;;;10.63;3.03;;;29.30;44.30;;;;;;5044313;28;20033;-62
2023/06/14 12:24:42;;;;;;;4.10;1.85;;;29.30;44.20;;;;;;5016418;28;20037;-64
2023/06/14 12:27:08;;;;;;;4.80;2.60;;;29.40;44.20;;;;;;5039790;28;20243;-62
2023/06/14 12:29:33;;;;;;;6.35;2.05;;;29.40;43.80;;;;;;5035013;28;20518;-60
2023/06/14 12:31:59;;;;;;;3.70;2.00;;;29.40;44.00;;;;;;5038397;28;20033;-61
2023/06/14 12:34:26;;;;;;;4.38;2.00;;;29.50;44.10;;;;;;5038090;28;20029;-63
2023/06/14 12:36:53;;;;;;;3.83;1.80;;;29.40;44.60;;;;;;5042002;28;20087;-61
2023/06/14 12:39:19;;;;;;;3.25;1.98;;;29.40;44.40;;;;;;5013924;28;20033;-70
2023/06/14 12:41:45;;;;;;;3.70;2.08;;;29.40;44.20;;;;;;5034752;28;20038;-64
2023/06/14 12:44:12;;;;;;;5.88;2.05;;;29.40;44.50;;;;;;5036694;28;20025;-65
2023/06/14 12:46:39;;;;;;;4.15;2.03;;;29.40;44.50;;;;;;5040961;28;20087;-63
2023/06/14 12:49:06;;;;;;;5.03;1.83;;;29.30;44.60;;;;;;5036453;28;20534;-61